Time;durP1;ratioP1;P1;durP2;ratioP2;P2;SDS_P1;SDS_P2;PMS_P1;PMS_P2;Temp;Humidity;BMP_temperature;BMP_pressure;BME280_temperature;BME280_humidity;BME280_pressure;Samples;Min_cycle;Max_cycle;Signal;HPM_P1;HPM_P2
2023/12/13 00:00:40;;;;;;;28.33;16.60;;;;;;;2.48;74.95;99262.72;6167860;23;20370;-92
2023/12/13 00:03:06;;;;;;;25.88;16.08;;;;;;;2.60;74.84;99258.31;6142272;23;20498;-91
2023/12/13 00:05:31;;;;;;;26.13;16.98;;;;;;;2.39;74.85;99241.72;6142566;23;20020;-91
2023/12/13 00:07:57;;;;;;;29.73;17.60;;;;;;;2.21;75.45;99242.47;6141782;23;20083;-91
2023/12/13 00:10:22;;;;;;;28.38;17.13;;;;;;;2.49;75.14;99261.66;6142384;23;20031;-91
2023/12/13 00:12:48;;;;;;;30.00;16.90;;;;;;;2.54;75.14;99251.19;6166920;23;19997;-91
2023/12/13 00:15:17;;;;;;;32.85;17.75;;;;;;;2.60;75.26;99271.59;6142000;23;20039;-91
2023/12/13 00:17:43;;;;;;;27.08;15.73;;;;;;;2.55;74.54;99247.50;6145190;23;20001;-92
2023/12/13 00:20:08;;;;;;;28.95;17.67;;;;;;;2.71;74.71;99273.50;6168913;23;20000;-92
2023/12/13 00:22:34;;;;;;;26.27;16.42;;;;;;;2.52;75.28;99248.75;6146908;23;20083;-91
2023/12/13 00:24:59;;;;;;;26.55;17.35;;;;;;;2.50;75.34;99260.66;6148556;23;20035;-91
2023/12/13 00:27:25;;;;;;;26.10;16.02;;;;;;;2.39;75.07;99239.06;6147021;23;20016;-91
2023/12/13 00:29:51;;;;;;;29.02;17.85;;;;;;;2.59;75.18;99262.81;6173750;23;19996;-91
2023/12/13 00:32:16;;;;;;;28.30;16.35;;;;;;;2.48;74.63;99252.06;6167097;23;20005;-92
2023/12/13 00:34:42;;;;;;;29.08;16.13;;;;;;;2.30;74.83;99244.88;6141898;23;20001;-91
2023/12/13 00:37:07;;;;;;;26.55;15.13;;;;;;;2.20;74.25;99232.91;6143275;23;20011;-91
2023/12/13 00:39:33;;;;;;;32.70;15.93;;;;;;;2.07;74.92;99230.34;6142386;23;20007;-91
2023/12/13 00:41:59;;;;;;;31.00;16.52;;;;;;;2.17;75.60;99246.59;6143181;23;20030;-92
2023/12/13 00:44:24;;;;;;;28.23;16.70;;;;;;;2.21;75.69;99261.06;6141941;23;19996;-91
2023/12/13 00:46:50;;;;;;;22.33;14.57;;;;;;;2.07;75.56;99248.91;6142580;23;20000;-91
2023/12/13 00:49:15;;;;;;;29.27;18.73;;;;;;;1.93;75.61;99220.84;6143589;23;20004;-92
2023/12/13 00:51:41;;;;;;;27.77;14.65;;;;;;;1.87;75.47;99224.34;6143078;23;20009;-92
2023/12/13 00:54:07;;;;;;;20.98;13.88;;;;;;;1.89;75.31;99211.69;6143511;23;20004;-91
2023/12/13 00:56:34;;;;;;;22.05;14.57;;;;;;;2.12;74.90;99227.84;6141853;23;20011;-91
2023/12/13 00:59:00;;;;;;;27.35;15.32;;;;;;;2.17;74.95;99225.34;6168444;23;20423;-91
2023/12/13 01:01:26;;;;;;;22.30;13.63;;;;;;;2.20;75.28;99224.09;6143814;23;20008;-91
2023/12/13 01:03:52;;;;;;;22.55;14.95;;;;;;;2.17;75.04;99213.91;6143472;23;20035;-91
2023/12/13 01:06:17;;;;;;;22.13;12.77;;;;;;;2.32;75.71;99238.28;6144685;23;20017;-92
2023/12/13 01:08:43;;;;;;;23.13;13.23;;;;;;;2.33;76.26;99231.16;6166262;23;20451;-91
2023/12/13 01:11:09;;;;;;;18.33;9.73;;;;;;;2.27;76.42;99218.75;6142198;23;19996;-92
2023/12/13 01:13:35;;;;;;;25.77;14.30;;;;;;;2.40;75.95;99238.03;6142857;23;20007;-92
2023/12/13 01:16:00;;;;;;;22.27;14.02;;;;;;;2.39;75.69;99230.28;6141294;23;20036;-92
2023/12/13 01:18:26;;;;;;;24.27;14.55;;;;;;;2.18;74.40;99202.28;6143058;23;20004;-92
2023/12/13 01:20:51;;;;;;;24.75;14.50;;;;;;;2.15;74.48;99200.03;6141809;23;20024;-91
2023/12/13 01:23:17;;;;;;;24.55;15.38;;;;;;;1.94;74.65;99194.09;6167571;23;20023;-91
2023/12/13 01:25:46;;;;;;;24.73;15.27;;;;;;;1.78;75.27;99182.16;6142384;23;20076;-92
2023/12/13 01:28:11;;;;;;;25.85;14.75;;;;;;;1.88;74.12;99162.28;6143958;23;20040;-92
2023/12/13 01:30:37;;;;;;;29.45;13.70;;;;;;;2.07;74.84;99179.88;6141717;23;20027;-92
2023/12/13 01:33:02;;;;;;;25.35;15.40;;;;;;;1.90;74.87;99163.69;6142743;23;20444;-92
2023/12/13 01:35:28;;;;;;;24.60;15.60;;;;;;;2.01;73.90;99189.53;6140985;23;20020;-91
2023/12/13 01:37:54;;;;;;;22.65;13.93;;;;;;;2.06;74.29;99170.31;6142335;23;20020;-91
2023/12/13 01:40:19;;;;;;;22.63;12.82;;;;;;;2.19;75.04;99154.22;6141165;23;20079;-92
2023/12/13 01:42:45;;;;;;;21.95;14.90;;;;;;;2.13;74.17;99167.56;6140999;23;19985;-92
2023/12/13 01:45:10;;;;;;;24.70;14.63;;;;;;;1.93;74.09;99165.09;6141464;23;19984;-92
2023/12/13 01:47:37;;;;;;;24.95;15.05;;;;;;;1.95;74.28;99147.09;6141946;23;20027;-92
2023/12/13 01:50:15;;;;;;;20.85;14.23;;;;;;;2.11;74.32;99153.72;6141770;23;20351;-92
2023/12/13 01:52:40;;;;;;;27.75;15.48;;;;;;;1.89;74.39;99143.50;6168133;23;19996;-92
2023/12/13 01:55:06;;;;;;;24.35;14.30;;;;;;;2.01;74.72;99157.69;6167469;23;20011;-92
2023/12/13 01:57:32;;;;;;;24.50;14.68;;;;;;;1.96;74.36;99130.94;6142295;23;20000;-92
2023/12/13 01:59:57;;;;;;;22.90;13.85;;;;;;;2.01;74.92;99139.09;6142455;23;20000;-91
2023/12/13 02:02:23;;;;;;;19.50;13.05;;;;;;;2.08;75.30;99157.63;6166333;23;20431;-91
2023/12/13 02:04:51;;;;;;;26.40;15.35;;;;;;;2.10;75.39;99147.59;6144824;23;20021;-91
2023/12/13 02:07:17;;;;;;;26.50;16.20;;;;;;;1.84;75.27;99115.97;6145478;23;20004;-92
2023/12/13 02:09:42;;;;;;;27.67;17.20;;;;;;;1.60;75.11;99116.56;6170289;23;20051;-92
2023/12/13 02:12:09;;;;;;;30.23;17.75;;;;;;;1.61;75.64;99127.97;6168055;23;20004;-91
2023/12/13 02:14:34;;;;;;;27.98;16.80;;;;;;;1.30;75.75;99105.75;6166951;23;20005;-91
2023/12/13 02:17:00;;;;;;;28.92;16.58;;;;;;;1.35;75.90;99129.81;6191366;23;20059;-91
2023/12/13 02:19:26;;;;;;;24.52;15.60;;;;;;;1.19;76.01;99101.16;6167411;23;20004;-92
2023/12/13 02:21:51;;;;;;;26.52;16.08;;;;;;;1.36;75.57;99122.66;6144506;23;20000;-91
2023/12/13 02:24:18;;;;;;;24.40;15.45;;;;;;;1.21;75.88;99094.59;6146164;23;19997;-91
2023/12/13 02:26:44;;;;;;;25.00;15.43;;;;;;;1.36;75.79;99093.47;6169055;23;20008;-91
2023/12/13 02:29:09;;;;;;;27.13;15.52;;;;;;;1.52;75.57;99094.81;6143732;23;20009;-91
2023/12/13 02:31:35;;;;;;;23.75;15.48;;;;;;;1.52;75.58;99085.00;6169941;23;19992;-91
2023/12/13 02:34:01;;;;;;;29.40;15.48;;;;;;;1.74;75.07;99113.78;6141556;23;20443;-91
2023/12/13 02:36:26;;;;;;;30.70;16.55;;;;;;;1.74;75.62;99125.25;6167493;23;20013;-90
2023/12/13 02:38:52;;;;;;;24.30;15.32;;;;;;;1.77;75.39;99124.78;6143114;23;20008;-92
2023/12/13 02:41:17;;;;;;;22.58;14.70;;;;;;;1.77;75.74;99124.78;6142101;23;20015;-91
2023/12/13 02:43:43;;;;;;;30.83;16.10;;;;;;;1.58;75.67;99105.34;6142290;23;20001;-91
2023/12/13 02:46:08;;;;;;;25.48;15.00;;;;;;;1.59;75.50;99106.97;6142618;23;20004;-91
2023/12/13 02:48:37;;;;;;;23.63;14.60;;;;;;;1.77;74.88;99126.66;6142558;23;20402;-91
2023/12/13 02:51:03;;;;;;;25.42;14.98;;;;;;;1.75;75.22;99123.41;6143101;23;20081;-90
2023/12/13 02:53:29;;;;;;;25.30;15.15;;;;;;;1.93;75.52;99155.31;6142211;23;20000;-91
2023/12/13 02:55:54;;;;;;;28.17;15.57;;;;;;;1.66;75.57;99132.63;6167156;23;20555;-91
2023/12/13 02:58:20;;;;;;;25.77;15.23;;;;;;;1.60;74.56;99124.53;6167048;23;20031;-90
2023/12/13 03:00:46;;;;;;;27.00;16.08;;;;;;;1.42;75.87;99114.66;6141557;23;19997;-90
2023/12/13 03:03:11;;;;;;;25.00;14.27;;;;;;;1.19;75.84;99107.25;6167107;23;20020;-92
2023/12/13 03:05:37;;;;;;;25.48;14.88;;;;;;;1.03;75.47;99089.19;6190796;23;20025;-90
2023/12/13 03:08:03;;;;;;;28.55;16.90;;;;;;;1.11;75.40;99112.00;6141489;23;20075;-92
2023/12/13 03:10:28;;;;;;;26.90;15.02;;;;;;;1.13;75.60;99118.72;6144186;23;19996;-92
2023/12/13 03:12:55;;;;;;;26.13;14.55;;;;;;;1.15;75.08;99124.63;6168637;23;20347;-92
2023/12/13 03:15:20;;;;;;;24.48;14.32;;;;;;;1.05;75.64;99112.84;6145467;23;20014;-92
2023/12/13 03:17:48;;;;;;;21.33;13.27;;;;;;;1.26;75.83;99114.34;6144247;23;20028;-92
2023/12/13 03:20:14;;;;;;;29.33;15.23;;;;;;;1.00;76.05;99090.44;6144646;23;20075;-92
2023/12/13 03:22:42;;;;;;;26.50;14.98;;;;;;;1.06;76.24;99082.66;6144012;23;20007;-92
2023/12/13 03:25:07;;;;;;;24.17;14.82;;;;;;;1.29;75.61;99074.16;6144784;23;20350;-90
2023/12/13 03:27:33;;;;;;;22.73;14.80;;;;;;;1.34;74.98;99053.91;6169662;23;20079;-90
2023/12/13 03:29:59;;;;;;;23.02;14.32;;;;;;;1.37;75.21;99042.03;6169649;23;20024;-90
2023/12/13 03:32:24;;;;;;;22.00;14.68;;;;;;;1.66;75.25;99064.47;6144278;23;20002;-91
2023/12/13 03:34:50;;;;;;;22.58;14.77;;;;;;;1.69;75.50;99055.25;6168942;23;20058;-91
2023/12/13 03:37:18;;;;;;;19.95;12.50;;;;;;;1.71;74.97;99039.94;6146366;23;20380;-91
2023/12/13 03:39:44;;;;;;;20.02;12.88;;;;;;;1.76;74.87;99042.72;6169432;23;20358;-91
2023/12/13 03:42:10;;;;;;;25.67;14.02;;;;;;;1.68;75.00;99046.50;6168955;23;20031;-92
2023/12/13 03:44:36;;;;;;;25.55;13.07;;;;;;;1.67;74.52;99030.78;6168791;23;20005;-92
2023/12/13 03:47:04;;;;;;;23.42;14.45;;;;;;;1.93;74.67;99064.19;6168901;23;20378;-91
2023/12/13 03:49:32;;;;;;;18.90;12.63;;;;;;;1.86;74.79;99055.50;6144153;23;19996;-91
2023/12/13 03:51:57;;;;;;;20.83;13.43;;;;;;;1.76;74.24;99059.44;6169029;23;19996;-92
2023/12/13 03:54:23;;;;;;;21.90;13.18;;;;;;;1.75;74.87;99063.16;6168790;23;20004;-90
2023/12/13 03:56:48;;;;;;;20.20;12.68;;;;;;;1.65;74.69;99054.88;6169020;23;20020;-91
2023/12/13 03:59:14;;;;;;;22.52;12.73;;;;;;;1.50;74.94;99051.75;6145010;23;19996;-90
2023/12/13 04:01:40;;;;;;;27.42;14.65;;;;;;;1.31;75.31;99037.63;6144188;23;20028;-90
2023/12/13 04:04:05;;;;;;;27.30;15.30;;;;;;;1.30;75.51;99065.97;6143335;23;20008;-91
2023/12/13 04:06:35;;;;;;;28.13;14.60;;;;;;;1.45;75.31;99078.09;6144921;23;20012;-90
2023/12/13 04:09:01;;;;;;;23.50;14.13;;;;;;;1.28;75.07;99051.31;6170336;23;20000;-91
2023/12/13 04:11:26;;;;;;;23.58;14.18;;;;;;;1.23;74.54;99037.91;6168494;23;20071;-90
2023/12/13 04:13:52;;;;;;;27.08;15.27;;;;;;;1.34;75.30;99056.56;6168766;23;20072;-91
2023/12/13 04:16:18;;;;;;;20.45;14.00;;;;;;;1.38;74.49;99041.03;6168432;23;20435;-91
2023/12/13 04:18:43;;;;;;;23.55;14.10;;;;;;;1.54;74.51;99056.41;6192964;23;20008;-91
2023/12/13 04:21:12;;;;;;;20.73;13.43;;;;;;;1.39;74.72;99032.88;6168937;23;19996;-92
2023/12/13 04:23:38;;;;;;;26.13;16.02;;;;;;;1.30;74.55;99030.69;6142823;23;20005;-91
2023/12/13 04:26:04;;;;;;;31.67;14.90;;;;;;;1.23;74.92;99044.00;6143797;23;20028;-90
2023/12/13 04:28:34;;;;;;;25.98;14.77;;;;;;;1.14;74.80;99019.59;6168457;23;19996;-90
2023/12/13 04:30:59;;;;;;;23.17;13.57;;;;;;;1.22;74.67;99047.66;6169259;23;20012;-90
2023/12/13 04:33:25;;;;;;;22.55;14.65;;;;;;;1.34;75.11;99048.59;6192554;23;20431;-91
2023/12/13 04:35:50;;;;;;;19.70;12.60;;;;;;;1.29;75.10;99040.50;6142974;23;20076;-91
2023/12/13 04:38:16;;;;;;;26.00;14.00;;;;;;;1.31;74.95;99011.91;6167078;23;20024;-91
2023/12/13 04:40:42;;;;;;;29.30;13.90;;;;;;;1.38;75.36;99022.47;6143391;23;19996;-92
2023/12/13 04:43:07;;;;;;;27.85;14.00;;;;;;;1.17;75.14;99000.59;6143326;23;20048;-91
2023/12/13 04:45:35;;;;;;;21.77;13.13;;;;;;;1.19;75.26;99006.50;6142538;23;20000;-91
2023/12/13 04:48:01;;;;;;;22.92;13.35;;;;;;;1.24;75.31;99002.38;6167139;23;20035;-90
2023/12/13 04:50:27;;;;;;;22.70;13.23;;;;;;;1.26;74.95;98990.53;6143310;23;20036;-92
2023/12/13 04:52:52;;;;;;;29.45;19.15;;;;;;;1.22;75.81;99005.25;6166166;23;20000;-90
2023/12/13 04:55:18;;;;;;;25.05;15.82;;;;;;;1.08;75.44;98983.34;6166734;23;20347;-91
2023/12/13 04:57:44;;;;;;;25.73;14.95;;;;;;;1.27;75.56;98994.81;6142399;23;20039;-91
2023/12/13 05:00:10;;;;;;;27.23;15.15;;;;;;;1.20;75.56;98992.22;6142744;23;20001;-91
2023/12/13 05:02:39;;;;;;;22.60;13.73;;;;;;;1.17;74.92;98982.03;6143553;23;20004;-91
2023/12/13 05:05:05;;;;;;;24.48;14.40;;;;;;;1.45;74.50;98999.31;6165650;23;20031;-91
2023/12/13 05:07:32;;;;;;;28.30;13.75;;;;;;;1.30;74.63;98983.75;6167337;23;20079;-92
2023/12/13 05:09:58;;;;;;;26.10;13.82;;;;;;;1.30;74.66;98991.72;6142776;23;20007;-92
2023/12/13 05:12:24;;;;;;;22.30;15.00;;;;;;;1.36;75.05;99012.06;6144389;23;20345;-93
2023/12/13 05:14:52;;;;;;;23.73;14.90;;;;;;;1.48;75.01;99014.81;6142923;23;19997;-91
2023/12/13 05:17:18;;;;;;;26.70;16.83;;;;;;;1.57;74.87;99034.72;6144044;23;20293;-92
2023/12/13 05:19:43;;;;;;;33.20;21.35;;;;;;;1.67;74.70;99044.06;6145298;23;20004;-95
2023/12/13 05:22:11;;;;;;;36.75;20.23;;;;;;;1.59;74.07;99018.59;6169765;23;20000;-93
2023/12/13 05:24:39;;;;;;;30.83;18.65;;;;;;;1.62;74.46;99004.91;6169287;23;19993;-94
2023/12/13 05:27:05;;;;;;;26.65;17.15;;;;;;;1.73;74.39;99016.63;6169077;23;20009;-93
2023/12/13 05:29:51;;;;;;;30.38;17.45;;;;;;;1.66;74.43;98992.00;6143407;23;20016;-93
2023/12/13 05:32:17;;;;;;;83.13;18.00;;;;;;;1.72;73.79;98985.81;6168147;23;20011;-92
2023/12/13 05:34:42;;;;;;;38.15;22.85;;;;;;;1.57;74.08;98954.31;6144005;23;20005;-92
2023/12/13 05:37:08;;;;;;;39.22;18.83;;;;;;;1.84;73.94;98978.72;6193254;23;20063;-92
2023/12/13 05:39:33;;;;;;;32.13;18.75;;;;;;;1.97;74.06;98969.81;6144766;23;20060;-93
2023/12/13 05:42:04;;;;;;;34.70;18.98;;;;;;;1.94;74.14;98968.41;6170582;23;20000;-92
2023/12/13 05:44:35;;;;;;;31.10;18.48;;;;;;;1.95;74.31;98945.31;6144204;23;20335;-91
2023/12/13 05:47:01;;;;;;;33.30;19.50;;;;;;;2.24;74.79;98972.94;6146553;23;20084;-94
2023/12/13 05:49:26;;;;;;;36.35;21.33;;;;;;;2.50;75.19;98979.75;6147954;23;20682;-91
2023/12/13 05:51:53;;;;;;;28.75;19.00;;;;;;;2.59;75.11;98959.00;6171282;23;20093;-93
2023/12/13 05:54:19;;;;;;;32.50;19.75;;;;;;;2.73;74.80;98956.97;6173594;23;20021;-93
2023/12/13 05:56:45;;;;;;;30.42;18.80;;;;;;;2.76;74.69;98940.53;6144154;23;20439;-92
2023/12/13 05:59:11;;;;;;;37.88;20.65;;;;;;;2.70;74.29;98930.81;6145286;23;20007;-94
2023/12/13 06:01:36;;;;;;;46.67;29.98;;;;;;;3.07;73.79;98962.56;6169550;23;20099;-92
2023/12/13 06:04:02;;;;;;;37.40;23.05;;;;;;;3.02;72.56;98949.97;6145432;23;20085;-92
2023/12/13 06:06:28;;;;;;;35.40;21.33;;;;;;;2.95;72.38;98955.38;6173651;23;20013;-93
2023/12/13 06:08:53;;;;;;;37.15;20.40;;;;;;;3.14;72.06;98979.25;6149540;23;20347;-91
2023/12/13 06:11:19;;;;;;;34.28;19.75;;;;;;;3.11;71.55;98945.91;6150968;23;20076;-93
2023/12/13 06:13:45;;;;;;;36.25;19.85;;;;;;;3.33;71.45;98970.09;6148996;23;20007;-90
2023/12/13 06:16:13;;;;;;;35.88;20.83;;;;;;;3.47;71.49;98983.19;6225281;23;20063;-95
2023/12/13 06:18:39;;;;;;;35.50;20.25;;;;;;;3.19;71.37;98934.13;6149924;23;20018;-92
2023/12/13 06:21:11;;;;;;;34.78;19.45;;;;;;;3.60;71.50;98951.00;6148256;23;20001;-91
2023/12/13 06:23:37;;;;;;;41.78;19.98;;;;;;;3.81;70.04;98937.06;6150095;23;20004;-91
2023/12/13 06:26:06;;;;;;;32.15;19.83;;;;;;;3.62;69.34;98901.81;6148898;23;19999;-94
2023/12/13 06:28:49;;;;;;;37.50;20.90;;;;;;;3.92;69.13;98921.31;6157212;23;20008;-96
2023/12/13 06:31:52;;;;;;;37.85;21.83;;;;;;;3.83;69.70;98892.38;6189550;23;19992;-94
2023/12/13 06:34:19;;;;;;;37.65;22.80;;;;;;;3.81;70.18;98867.84;6215690;23;20012;-95
2023/12/13 06:39:40;;;;;;;;;;;;;;;;;;;;;
2023/12/13 06:42:22;;;;;;;43.72;26.38;;;;;;;4.64;70.08;98902.09;6148186;23;20002;-96
2023/12/13 06:44:48;;;;;;;44.28;25.88;;;;;;;4.54;70.52;98881.41;6150113;23;20005;-95
2023/12/13 06:50:10;;;;;;;50.88;26.50;;;;;;;4.86;70.78;98935.03;6161999;23;20066;-96
2023/12/13 06:52:38;;;;;;;43.10;26.63;;;;;;;4.85;69.72;98916.59;6119553;23;20014;-93
2023/12/13 06:55:17;;;;;;;;;;;;;;;;;;;;;
2023/12/13 06:57:51;;;;;;;42.00;22.77;;;;;;;5.05;67.69;98924.09;6166744;23;20076;-94
2023/12/13 07:00:32;;;;;;;39.17;22.92;;;;;;;5.10;67.55;98902.03;6115105;23;20379;-94
2023/12/13 07:03:01;;;;;;;39.70;19.30;;;;;;;5.12;67.25;98898.06;6115201;23;20005;-95
2023/12/13 07:05:27;;;;;;;48.53;31.83;;;;;;;5.23;67.36;98918.53;6118669;23;20316;-93
2023/12/13 07:07:56;;;;;;;48.38;28.27;;;;;;;5.22;66.93;98897.41;6121713;23;19997;-95
2023/12/13 07:20:26;;;;;;;40.95;19.23;;;;;;;5.76;67.47;98943.00;6184493;22;20017;-95
2023/12/13 07:22:54;;;;;;;35.97;18.02;;;;;;;5.56;67.66;98918.69;6178180;23;20020;-95
2023/12/13 07:25:36;;;;;;;28.92;16.98;;;;;;;5.81;68.18;98916.38;6176749;23;20000;-95
2023/12/13 07:28:13;;;;;;;19.77;12.02;;;;;;;6.17;69.07;98927.50;6184171;23;20011;-96
2023/12/13 07:30:42;;;;;;;31.48;18.27;;;;;;;6.44;67.86;98932.06;6149978;23;20004;-95
2023/12/13 07:33:09;;;;;;;28.83;16.00;;;;;;;6.70;66.64;98917.03;6149085;23;20004;-95
2023/12/13 07:35:35;;;;;;;30.98;16.48;;;;;;;6.77;66.68;98904.28;6171263;23;20004;-94
2023/12/13 07:38:01;;;;;;;29.95;13.95;;;;;;;7.02;65.61;98897.50;6171217;23;20056;-94
2023/12/13 07:40:44;;;;;;;15.85;10.40;;;;;;;7.22;66.39;98891.47;6147598;23;20004;-93
2023/12/13 07:54:18;;;;;;;;;;;;;;;;;;;;;
2023/12/13 07:57:27;;;;;;;11.52;5.95;;;;;;;8.49;62.15;98799.97;6234694;23;20005;-96
2023/12/13 08:00:09;;;;;;;8.55;5.15;;;;;;;8.99;60.74;98827.03;6173954;23;20008;-95
2023/12/13 08:02:42;;;;;;;13.68;7.38;;;;;;;9.15;60.72;98806.34;6179235;23;19993;-94
2023/12/13 08:05:13;;;;;;;6.30;4.43;;;;;;;9.45;59.64;98808.09;6145075;23;20032;-94
2023/12/13 08:07:46;;;;;;;9.63;5.87;;;;;;;9.60;59.02;98790.31;6146277;23;19993;-93
2023/12/13 08:10:19;;;;;;;8.68;6.45;;;;;;;9.62;59.21;98777.38;6154909;23;20001;-94
2023/12/13 08:12:47;;;;;;;15.05;7.50;;;;;;;9.80;58.88;98784.81;6167882;23;20015;-88
2023/12/13 08:15:13;;;;;;;11.45;4.78;;;;;;;9.85;58.63;98787.47;6145319;23;20020;-91
2023/12/13 08:17:39;;;;;;;8.80;5.53;;;;;;;10.08;58.48;98815.56;6148348;23;20001;-92
2023/12/13 08:20:06;;;;;;;13.75;8.88;;;;;;;10.18;58.03;98797.75;6198294;23;20012;-89
2023/12/13 08:22:37;;;;;;;21.27;6.50;;;;;;;10.32;58.01;98807.63;6140058;23;20013;-90
2023/12/13 08:25:06;;;;;;;8.20;4.93;;;;;;;10.39;57.33;98787.69;6144303;23;20008;-89
2023/12/13 08:34:26;;;;;;;7.50;5.07;;;;;;;10.79;56.14;98777.63;6155498;23;20035;-94
2023/12/13 08:39:53;;;;;;;17.00;6.05;;;;;;;11.15;55.87;98796.13;6151874;23;20001;-91
2023/12/13 08:42:27;;;;;;;9.32;4.32;;;;;;;11.19;54.84;98794.47;6175994;23;20008;-94
2023/12/13 08:45:05;;;;;;;10.30;5.10;;;;;;;11.40;54.59;98800.44;6168344;23;19997;-94
2023/12/13 08:47:39;;;;;;;10.70;5.00;;;;;;;11.59;54.58;98800.47;6145092;23;20020;-90
2023/12/13 08:50:08;;;;;;;13.90;5.90;;;;;;;11.60;54.14;98781.31;6142167;23;20005;-91
2023/12/13 08:52:37;;;;;;;8.10;5.63;;;;;;;11.65;53.64;98764.25;6165485;23;19996;-94
2023/12/13 08:55:04;;;;;;;15.93;7.43;;;;;;;11.91;53.31;98795.22;6116366;23;19997;-93
2023/12/13 08:57:35;;;;;;;10.32;5.95;;;;;;;11.88;52.76;98768.78;6115219;23;20039;-90
2023/12/13 09:00:01;;;;;;;17.83;7.45;;;;;;;12.04;52.62;98774.78;6141722;23;20005;-92
2023/12/13 09:02:27;;;;;;;13.63;7.28;;;;;;;12.11;52.62;98763.63;6117698;23;20056;-90
2023/12/13 09:04:52;;;;;;;8.45;5.10;;;;;;;12.32;52.01;98778.38;6190022;23;20052;-91
2023/12/13 09:07:50;;;;;;;11.30;6.55;;;;;;;12.45;51.44;98787.66;6141583;23;20380;-94
2023/12/13 09:13:51;;;;;;;11.40;5.15;;;;;;;12.41;50.62;98715.63;6071352;23;19998;-92
2023/12/13 09:16:28;;;;;;;15.05;4.25;;;;;;;12.49;49.83;98709.53;6103152;23;20429;-92
2023/12/13 09:19:44;;;;;;;6.55;3.78;;;;;;;12.79;48.92;98723.59;6078004;23;20014;-92
2023/12/13 09:27:13;;;;;;;18.73;5.65;;;;;;;12.90;48.67;98690.66;5990240;24;20009;-93
2023/12/13 09:29:38;;;;;;;7.35;4.03;;;;;;;12.96;48.46;98688.66;5965611;23;20028;-94
2023/12/13 09:32:35;;;;;;;4.65;2.70;;;;;;;12.91;46.83;98662.56;6021642;23;20003;-93
2023/12/13 09:42:13;;;;;;;7.18;4.20;;;;;;;13.25;46.17;98655.09;6045994;23;20450;-94
2023/12/13 09:45:05;;;;;;;9.57;4.50;;;;;;;13.42;45.66;98668.81;6020256;23;20002;-95
2023/12/13 09:54:30;;;;;;;5.93;3.00;;;;;;;13.58;44.84;98680.09;6198998;23;20024;-93
2023/12/13 09:58:06;;;;;;;;;;;;;;;;;;;;;
2023/12/13 10:00:32;;;;;;;12.75;3.80;;;;;;;13.64;45.49;98642.91;6092741;23;20010;-95
2023/12/13 10:02:58;;;;;;;7.78;2.35;;;;;;;13.69;43.81;98659.81;6089012;23;20040;-94
2023/12/13 10:05:23;;;;;;;9.15;2.80;;;;;;;13.89;44.19;98647.69;6084120;23;20017;-92
2023/12/13 10:07:57;;;;;;;9.43;2.70;;;;;;;14.01;43.62;98639.03;6082778;23;20005;-95
2023/12/13 10:10:52;;;;;;;23.88;4.35;;;;;;;14.31;43.46;98653.69;6105024;23;20011;-94
2023/12/13 10:13:23;;;;;;;15.52;4.50;;;;;;;14.30;43.36;98641.25;6111951;23;20013;-93
2023/12/13 10:18:57;;;;;;;16.17;8.27;;;;;;;14.36;42.97;98639.22;6077580;23;20021;-94
2023/12/13 10:21:23;;;;;;;9.70;4.25;;;;;;;14.31;43.41;98648.25;6054057;23;20002;-93
2023/12/13 10:23:49;;;;;;;10.52;2.90;;;;;;;14.19;42.59;98639.91;6054551;23;20028;-93
2023/12/13 10:26:15;;;;;;;13.88;3.30;;;;;;;14.22;43.75;98642.00;6030639;23;20006;-92
2023/12/13 10:28:41;;;;;;;8.60;2.60;;;;;;;14.20;43.25;98624.50;6052253;23;20005;-95
2023/12/13 10:31:20;;;;;;;3.22;2.22;;;;;;;14.19;42.80;98612.84;6054026;23;20002;-94
2023/12/13 10:33:57;;;;;;;4.95;2.95;;;;;;;14.32;42.76;98635.53;6031047;23;20002;-95
2023/12/13 10:36:28;;;;;;;8.43;2.42;;;;;;;14.28;43.43;98607.50;6034994;23;20010;-95
2023/12/13 10:38:54;;;;;;;;;;;;;;;14.51;43.33;98616.34;6102907;23;20017;-95
2023/12/13 10:41:27;;;;;;;13.52;2.85;;;;;;;14.43;43.43;98619.81;6052964;23;19908;-95
2023/12/13 10:43:57;;;;;;;8.90;4.90;;;;;;;14.49;43.49;98616.66;6061061;23;20082;-91
2023/12/13 10:46:29;;;;;;;15.68;6.40;;;;;;;14.53;43.11;98616.84;6157036;23;20001;-95
2023/12/13 10:48:59;;;;;;;6.40;3.60;;;;;;;14.30;42.86;98594.44;6123481;23;20005;-95
2023/12/13 10:51:29;;;;;;;7.78;3.22;;;;;;;14.28;43.73;98592.03;6174656;23;20028;-94
2023/12/13 10:53:54;;;;;;;4.32;2.35;;;;;;;14.50;43.13;98628.28;6172851;23;20473;-95
2023/12/13 10:56:21;;;;;;;6.57;2.92;;;;;;;14.28;43.30;98594.75;6148915;23;20072;-95
2023/12/13 10:58:55;;;;;;;3.97;2.40;;;;;;;14.08;43.57;98581.75;6174711;23;20064;-94
2023/12/13 11:13:04;;;;;;;9.23;3.38;;;;;;;14.29;44.34;98584.69;6163753;23;20026;-91
2023/12/13 11:18:33;;;;;;;10.82;3.40;;;;;;;14.17;43.39;98555.50;6140084;23;20009;-93
2023/12/13 11:21:00;;;;;;;5.55;2.63;;;;;;;14.07;43.58;98545.75;6115061;23;20005;-93
2023/12/13 11:23:30;;;;;;;7.43;2.78;;;;;;;14.28;43.52;98581.19;6159984;23;20109;-89
2023/12/13 11:25:56;;;;;;;11.63;3.03;;;;;;;14.33;44.10;98570.22;6110467;23;20366;-90
2023/12/13 11:28:24;;;;;;;12.00;3.15;;;;;;;14.37;44.26;98564.19;6116534;23;20033;-95
2023/12/13 11:31:01;;;;;;;7.82;3.30;;;;;;;14.28;44.21;98540.59;6140226;23;20020;-94
2023/12/13 11:33:34;;;;;;;9.40;2.90;;;;;;;14.21;45.41;98536.72;6112966;23;20001;-91
2023/12/13 11:36:12;;;;;;;18.08;3.58;;;;;;;14.18;45.57;98534.66;6111014;23;20001;-91
2023/12/13 11:38:38;;;;;;;8.63;3.65;;;;;;;14.15;45.31;98530.63;6135429;23;20001;-90
2023/12/13 11:41:41;;;;;;;13.38;4.03;;;;;;;14.17;45.37;98527.63;6138371;23;20044;-92
2023/12/13 11:44:35;;;;;;;10.07;4.25;;;;;;;14.06;45.47;98519.00;6118909;23;20059;-92
2023/12/13 11:47:05;;;;;;;12.18;4.15;;;;;;;14.02;44.92;98510.69;6084944;23;19998;-93
2023/12/13 11:50:03;;;;;;;5.07;3.75;;;;;;;14.10;44.88;98509.94;6083380;23;20006;-93
2023/12/13 11:56:11;;;;;;;6.82;4.55;;;;;;;14.36;44.01;98517.34;5971601;24;20012;-89
2023/12/13 11:58:37;;;;;;;16.02;6.43;;;;;;;14.31;44.28;98512.06;6000048;23;20013;-89
2023/12/13 12:01:03;;;;;;;15.68;5.20;;;;;;;14.44;44.20;98532.00;5999005;23;20097;-93
2023/12/13 12:03:28;;;;;;;13.05;4.82;;;;;;;14.26;44.39;98521.13;5998674;23;19999;-91
2023/12/13 12:05:54;;;;;;;6.00;3.50;;;;;;;14.27;43.64;98517.31;6071093;23;20009;-92
2023/12/13 12:08:55;;;;;;;13.23;3.22;;;;;;;14.33;43.34;98504.44;5999622;23;20006;-89
2023/12/13 12:15:12;;;;;;;6.75;3.38;;;;;;;14.42;43.67;98518.81;6072029;23;20026;-90
2023/12/13 12:17:38;;;;;;;17.70;3.80;;;;;;;14.47;43.98;98525.97;6015061;23;20014;-91
2023/12/13 12:20:16;;;;;;;10.85;4.88;;;;;;;14.40;44.36;98512.91;6073330;23;20453;-93
2023/12/13 12:22:42;;;;;;;7.40;2.95;;;;;;;14.54;44.12;98527.09;6064177;23;20001;-90
2023/12/13 12:25:18;;;;;;;9.15;3.70;;;;;;;14.47;43.95;98507.81;6111271;23;20033;-93
2023/12/13 12:27:57;;;;;;;10.90;3.45;;;;;;;14.44;44.00;98508.44;6115549;23;20001;-92
2023/12/13 12:30:26;;;;;;;6.82;2.83;;;;;;;14.53;43.37;98516.59;6140466;23;20012;-92
2023/12/13 12:32:52;;;;;;;8.73;3.58;;;;;;;14.51;43.71;98522.31;6111161;23;20009;-93
2023/12/13 12:35:20;;;;;;;8.77;5.10;;;;;;;14.46;43.54;98495.38;6108232;23;20017;-92
2023/12/13 12:37:48;;;;;;;9.48;4.80;;;;;;;14.45;44.77;98511.97;6134761;23;20005;-94
2023/12/13 12:40:17;;;;;;;10.52;4.60;;;;;;;14.44;44.87;98511.13;6136424;23;20002;-93
2023/12/13 12:42:45;;;;;;;9.70;5.75;;;;;;;14.30;44.41;98491.53;6134454;23;20443;-92
2023/12/13 12:46:20;;;;;;;14.43;6.10;;;;;;;14.31;44.64;98509.38;6136284;23;20005;-96
2023/12/13 12:49:10;;;;;;;;;;;;;;;;;;;;;
2023/12/13 12:51:41;;;;;;;7.32;4.38;;;;;;;14.37;44.30;98502.69;6142157;23;20028;-96
2023/12/13 12:54:08;;;;;;;9.67;3.77;;;;;;;14.44;44.02;98499.50;6118423;23;20061;-94
2023/12/13 12:56:38;;;;;;;7.53;4.70;;;;;;;14.39;44.76;98489.63;6112171;23;20005;-92
2023/12/13 12:59:12;;;;;;;10.13;7.03;;;;;;;14.52;44.94;98517.69;6110865;23;20046;-94
2023/12/13 13:01:37;;;;;;;13.20;7.70;;;;;;;14.32;46.59;98489.31;6111513;23;20025;-93
2023/12/13 13:04:36;;;;;;;10.52;6.35;;;;;;;14.31;46.56;98490.41;6112647;23;20031;-93
2023/12/13 13:07:10;;;;;;;7.53;4.80;;;;;;;14.36;47.37;98498.41;6139547;23;20052;-94
2023/12/13 13:09:38;;;;;;;9.27;6.60;;;;;;;14.32;47.96;98492.00;6113368;23;20007;-93